createdAt,value
2023-03-26T00:03:47.559Z,983.00
2023-03-26T00:07:47.716Z,960.00
2023-03-26T00:11:47.895Z,982.00
2023-03-26T00:15:47.953Z,975.00
2023-03-26T00:19:48.156Z,978.00
2023-03-26T00:23:48.287Z,972.00
2023-03-26T00:27:48.612Z,977.00
2023-03-26T00:31:48.654Z,967.00
2023-03-26T00:35:48.796Z,978.00
2023-03-26T00:39:48.982Z,979.00
2023-03-26T00:43:49.250Z,971.00
2023-03-26T00:47:49.487Z,975.00
2023-03-26T00:51:49.527Z,972.00
2023-03-26T00:55:49.698Z,970.00
2023-03-26T00:59:49.879Z,977.00
2023-03-26T01:04:04.912Z,978.00
2023-03-26T01:07:51.125Z,963.00
2023-03-26T01:11:49.945Z,989.00
2023-03-26T01:15:50.173Z,978.00
2023-03-26T01:19:50.395Z,988.00
2023-03-26T01:23:50.545Z,984.00
2023-03-26T01:27:50.776Z,977.00
2023-03-26T01:31:50.822Z,992.00
2023-03-26T01:35:51.113Z,981.00
2023-03-26T01:39:51.340Z,973.00
2023-03-26T01:43:51.474Z,982.00
2023-03-26T01:47:51.660Z,971.00
2023-03-26T01:51:51.908Z,975.00
2023-03-26T01:55:52.198Z,981.00
2023-03-26T01:59:52.235Z,983.00
2023-03-26T02:03:52.446Z,986.00
2023-03-26T02:07:52.649Z,977.00
2023-03-26T02:11:52.963Z,983.00
2023-03-26T02:15:53.368Z,981.00
2023-03-26T02:19:53.264Z,977.00
2023-03-26T02:23:53.499Z,977.00
2023-03-26T02:27:53.470Z,986.00
2023-03-26T02:31:53.472Z,978.00
2023-03-26T02:35:53.819Z,968.00
2023-03-26T02:39:53.341Z,989.00
2023-03-26T02:43:53.296Z,980.00
2023-03-26T02:47:53.322Z,968.00
2023-03-26T02:51:53.243Z,970.00
2023-03-26T02:55:53.414Z,964.00
2023-03-26T02:59:53.178Z,966.00
2023-03-26T03:03:53.157Z,970.00
2023-03-26T03:07:53.127Z,979.00
2023-03-26T03:11:53.123Z,970.00
2023-03-26T03:15:53.170Z,966.00
2023-03-26T03:19:52.987Z,974.00
2023-03-26T03:23:53.026Z,976.00
2023-03-26T03:27:52.918Z,979.00
2023-03-26T03:31:52.957Z,973.00
2023-03-26T03:35:53.076Z,979.00
2023-03-26T03:39:52.808Z,953.00
2023-03-26T03:43:52.959Z,974.00
2023-03-26T03:47:53.134Z,962.00
2023-03-26T03:51:52.890Z,988.00
2023-03-26T03:55:53.107Z,984.00
2023-03-26T03:59:52.749Z,982.00
2023-03-26T04:03:52.865Z,982.00
2023-03-26T04:07:52.707Z,978.00
2023-03-26T04:11:52.723Z,977.00
2023-03-26T04:15:52.840Z,966.00
2023-03-26T04:19:52.651Z,994.00
2023-03-26T04:23:52.885Z,978.00
2023-03-26T04:27:53.013Z,989.00
2023-03-26T04:31:53.183Z,981.00
2023-03-26T04:35:53.488Z,997.00
2023-03-26T04:39:53.449Z,986.00
2023-03-26T04:43:53.758Z,993.00
2023-03-26T04:47:54.380Z,980.00
2023-03-26T04:51:54.071Z,987.00
2023-03-26T04:55:54.545Z,997.00
2023-03-26T04:59:54.468Z,982.00
2023-03-26T05:03:54.736Z,986.00
2023-03-26T05:07:54.740Z,973.00
2023-03-26T05:11:54.921Z,980.00
2023-03-26T05:15:55.136Z,986.00
2023-03-26T05:19:55.244Z,979.00
2023-03-26T05:23:55.399Z,995.00
2023-03-26T05:27:55.539Z,994.00
2023-03-26T05:31:55.718Z,996.00
2023-03-26T05:35:55.892Z,994.00
2023-03-26T05:39:56.035Z,985.00
2023-03-26T05:43:56.202Z,981.00
2023-03-26T05:47:56.376Z,980.00
2023-03-26T05:51:56.444Z,980.00
2023-03-26T05:55:56.426Z,980.00
2023-03-26T05:59:56.423Z,984.00
2023-03-26T06:03:56.408Z,987.00
2023-03-26T06:07:56.365Z,989.00
2023-03-26T06:11:56.304Z,985.00
2023-03-26T06:15:56.274Z,984.00
2023-03-26T06:19:56.229Z,975.00
2023-03-26T06:23:56.174Z,965.00
2023-03-26T06:27:56.102Z,980.00
2023-03-26T06:31:59.580Z,981.00
2023-03-26T06:35:57.127Z,970.00
2023-03-26T06:39:56.016Z,978.00
2023-03-26T06:43:56.183Z,981.00
2023-03-26T06:47:56.234Z,981.00
2023-03-26T06:51:56.137Z,1000.00
2023-03-26T06:55:56.071Z,1006.00
2023-03-26T06:59:56.066Z,1014.00
2023-03-26T07:03:56.041Z,1010.00
2023-03-26T07:07:55.994Z,1021.00
2023-03-26T07:11:55.900Z,1014.00
2023-03-26T07:15:55.906Z,1026.00
2023-03-26T07:19:55.951Z,1022.00
2023-03-26T07:23:56.705Z,1017.00
2023-03-26T07:27:55.772Z,1016.00
2023-03-26T07:31:55.911Z,1022.00
2023-03-26T07:35:55.871Z,1017.00
2023-03-26T07:39:55.867Z,1012.00
2023-03-26T07:43:55.893Z,1004.00
2023-03-26T07:47:55.876Z,994.00
2023-03-26T07:51:55.736Z,990.00
2023-03-26T07:55:55.719Z,993.00
2023-03-26T07:59:55.643Z,1003.00
2023-03-26T08:03:55.685Z,982.00
2023-03-26T08:07:55.587Z,1000.00
2023-03-26T08:11:55.511Z,998.00
2023-03-26T08:15:55.545Z,989.00
2023-03-26T08:19:55.469Z,989.00
2023-03-26T08:23:55.441Z,990.00
2023-03-26T08:27:55.411Z,986.00
2023-03-26T08:31:55.336Z,979.00
2023-03-26T08:35:55.329Z,980.00
2023-03-26T08:39:55.288Z,983.00
2023-03-26T08:43:55.652Z,980.00
2023-03-26T08:47:55.249Z,976.00
2023-03-26T08:51:55.219Z,979.00
2023-03-26T08:55:55.344Z,981.00
2023-03-26T08:59:55.313Z,979.00
2023-03-26T09:03:55.325Z,968.00
2023-03-26T09:07:55.282Z,968.00
2023-03-26T09:11:55.193Z,965.00
2023-03-26T09:15:55.240Z,965.00
2023-03-26T09:19:55.112Z,979.00
2023-03-26T09:23:55.102Z,963.00
2023-03-26T09:27:55.050Z,971.00
2023-03-26T09:31:55.101Z,970.00
2023-03-26T09:35:55.071Z,975.00
2023-03-26T09:39:54.986Z,962.00
2023-03-26T09:43:54.900Z,967.00
2023-03-26T09:47:54.971Z,976.00
2023-03-26T09:51:54.803Z,959.00
2023-03-26T09:55:54.995Z,970.00
2023-03-26T09:59:54.910Z,982.00
2023-03-26T10:03:55.096Z,969.00
2023-03-26T10:07:55.071Z,970.00
2023-03-26T10:11:55.044Z,991.00
2023-03-26T10:15:55.029Z,982.00
2023-03-26T10:19:54.958Z,974.00
2023-03-26T10:23:54.888Z,976.00
2023-03-26T10:27:54.904Z,977.00
2023-03-26T10:31:54.818Z,972.00
2023-03-26T10:35:54.812Z,985.00
2023-03-26T10:39:54.772Z,975.00
2023-03-26T10:44:07.217Z,983.00
2023-03-26T10:47:55.744Z,979.00
2023-03-26T10:51:54.654Z,991.00
2023-03-26T10:55:54.683Z,971.00
2023-03-26T10:59:54.811Z,988.00
2023-03-26T11:03:54.969Z,984.00
2023-03-26T11:07:55.113Z,988.00
2023-03-26T11:11:55.315Z,979.00
2023-03-26T11:15:55.662Z,982.00
2023-03-26T11:19:55.557Z,998.00
2023-03-26T11:24:05.668Z,990.00
2023-03-26T11:27:56.672Z,990.00
2023-03-26T11:31:55.637Z,998.00
2023-03-26T11:35:55.882Z,996.00
2023-03-26T11:39:56.671Z,994.00
2023-03-26T11:43:56.021Z,996.00
2023-03-26T11:47:55.825Z,987.00
2023-03-26T11:51:55.740Z,984.00
2023-03-26T11:55:55.712Z,986.00
2023-03-26T11:59:57.498Z,990.00
2023-03-26T12:03:55.765Z,987.00
2023-03-26T12:07:55.970Z,991.00
2023-03-26T12:11:56.144Z,999.00
2023-03-26T12:15:56.478Z,995.00
2023-03-26T12:19:56.370Z,997.00
2023-03-26T12:23:56.469Z,1012.00
2023-03-26T12:27:56.209Z,1005.00
2023-03-26T12:31:56.264Z,991.00
2023-03-26T12:35:56.266Z,984.00
2023-03-26T12:40:09.418Z,1002.00
2023-03-26T12:44:50.584Z,993.00
2023-03-26T12:48:03.866Z,992.00
2023-03-26T12:51:57.029Z,1006.00
2023-03-26T12:55:55.995Z,1001.00
2023-03-26T12:59:55.924Z,1002.00
2023-03-26T13:03:55.943Z,988.00
2023-03-26T13:07:55.867Z,993.00
2023-03-26T13:11:56.058Z,1001.00
2023-03-26T13:15:55.833Z,986.00
2023-03-26T13:19:55.742Z,988.00
2023-03-26T13:23:56.055Z,980.00
2023-03-26T13:27:56.053Z,979.00
2023-03-26T13:31:55.667Z,983.00
2023-03-26T13:36:06.040Z,988.00
2023-03-26T13:39:56.615Z,989.00
2023-03-26T13:43:55.531Z,986.00
2023-03-26T13:47:55.573Z,982.00
2023-03-26T13:51:55.416Z,986.00
2023-03-26T13:55:55.438Z,992.00
2023-03-26T13:59:55.402Z,979.00
2023-03-26T14:03:55.373Z,975.00
2023-03-26T14:07:55.319Z,978.00
2023-03-26T14:11:55.301Z,1000.00
2023-03-26T14:15:55.362Z,974.00
2023-03-26T14:19:55.574Z,980.00
2023-03-26T14:23:55.162Z,987.00
2023-03-26T14:27:55.192Z,994.00
2023-03-26T14:31:55.228Z,989.00
2023-03-26T14:35:55.203Z,976.00
2023-03-26T14:39:55.143Z,987.00
2023-03-26T14:43:55.087Z,999.00
2023-03-26T14:47:55.263Z,984.00
2023-03-26T14:51:55.247Z,983.00
2023-03-26T14:55:55.222Z,990.00
2023-03-26T14:59:55.205Z,992.00
2023-03-26T15:03:55.237Z,994.00
2023-03-26T15:07:55.262Z,993.00
2023-03-26T15:11:55.305Z,982.00
2023-03-26T15:15:56.260Z,986.00
2023-03-26T15:19:55.221Z,992.00
2023-03-26T15:23:55.208Z,989.00
2023-03-26T15:27:55.173Z,988.00
2023-03-26T15:31:55.157Z,974.00
2023-03-26T15:35:57.365Z,987.00
2023-03-26T15:39:59.111Z,990.00
2023-03-26T15:44:23.862Z,994.00
2023-03-26T15:47:56.195Z,992.00
2023-03-26T15:51:55.070Z,999.00
2023-03-26T15:55:55.033Z,994.00
2023-03-26T15:59:55.031Z,989.00
2023-03-26T16:03:54.958Z,991.00
2023-03-26T16:07:55.021Z,992.00
2023-03-26T16:11:54.914Z,999.00
2023-03-26T16:15:54.949Z,995.00
2023-03-26T16:19:54.812Z,991.00
2023-03-26T16:23:54.847Z,1004.00
2023-03-26T16:27:54.869Z,1001.00
2023-03-26T16:31:55.062Z,994.00
2023-03-26T16:35:55.150Z,992.00
2023-03-26T16:39:55.256Z,996.00
2023-03-26T16:43:55.314Z,998.00
2023-03-26T16:47:55.500Z,1000.00
2023-03-26T16:51:55.663Z,1007.00
2023-03-26T16:55:55.698Z,1009.00
2023-03-26T17:00:04.626Z,1006.00
2023-03-26T17:03:56.764Z,1003.00
2023-03-26T17:07:55.754Z,996.00
2023-03-26T17:11:55.678Z,995.00
2023-03-26T17:15:55.903Z,996.00
2023-03-26T17:19:55.985Z,999.00
2023-03-26T17:23:56.112Z,1000.00
2023-03-26T17:27:56.302Z,1001.00
2023-03-26T17:31:56.491Z,1003.00
2023-03-26T17:35:56.689Z,1010.00
2023-03-26T17:39:56.888Z,1000.00
2023-03-26T17:43:57.029Z,998.00
2023-03-26T17:47:57.315Z,1005.00
2023-03-26T17:51:58.347Z,1004.00
2023-03-26T17:55:57.839Z,1008.00
2023-03-26T17:59:57.771Z,1003.00
2023-03-26T18:03:58.233Z,1005.00
2023-03-26T18:07:58.160Z,1001.00
2023-03-26T18:11:58.346Z,994.00
2023-03-26T18:15:58.649Z,1007.00
2023-03-26T18:19:58.714Z,1007.00
2023-03-26T18:23:59.623Z,1003.00
2023-03-26T18:27:59.183Z,1011.00
2023-03-26T18:31:59.427Z,996.00
2023-03-26T18:35:59.576Z,1000.00
2023-03-26T18:39:59.786Z,1003.00
2023-03-26T18:44:00.006Z,1005.00
2023-03-26T18:47:59.995Z,999.00
2023-03-26T18:51:59.877Z,1008.00
2023-03-26T18:55:59.874Z,1003.00
2023-03-26T18:59:59.861Z,1012.00
2023-03-26T19:03:59.825Z,1008.00
2023-03-26T19:07:59.757Z,1021.00
2023-03-26T19:11:59.662Z,1003.00
2023-03-26T19:15:59.699Z,993.00
2023-03-26T19:19:59.619Z,995.00
2023-03-26T19:23:59.751Z,1013.00
2023-03-26T19:27:59.721Z,1013.00
2023-03-26T19:31:59.729Z,999.00
2023-03-26T19:35:59.662Z,1010.00
2023-03-26T19:39:59.613Z,1002.00
2023-03-26T19:43:59.576Z,1001.00
2023-03-26T19:51:59.522Z,1019.00
2023-03-26T19:55:59.498Z,1013.00
2023-03-26T19:59:59.415Z,1012.00
2023-03-26T20:03:59.607Z,1010.00
2023-03-26T20:07:59.484Z,1010.00
2023-03-26T20:11:59.532Z,991.00
2023-03-26T20:16:06.120Z,1002.00
2023-03-26T20:20:00.447Z,999.00
2023-03-26T20:23:59.332Z,1002.00
2023-03-26T20:27:59.517Z,1000.00
2023-03-26T20:31:59.451Z,1013.00
2023-03-26T20:35:59.950Z,1004.00
2023-03-26T20:39:59.366Z,1010.00
2023-03-26T20:43:59.413Z,1008.00
2023-03-26T20:47:59.419Z,1001.00
2023-03-26T20:51:59.303Z,1005.00
2023-03-26T20:55:59.230Z,1007.00
2023-03-26T20:59:59.200Z,1006.00
2023-03-26T21:03:59.152Z,996.00
2023-03-26T21:07:59.249Z,1005.00
2023-03-26T21:11:59.408Z,995.00
2023-03-26T21:16:01.004Z,989.00
2023-03-26T21:19:59.666Z,1010.00
2023-03-26T21:23:59.623Z,995.00
2023-03-26T21:27:59.774Z,1012.00
2023-03-26T21:31:59.708Z,1010.00
2023-03-26T21:35:59.942Z,991.00
2023-03-26T21:39:59.918Z,1010.00
2023-03-26T21:44:00.006Z,999.00
2023-03-26T21:48:00.159Z,1002.00
2023-03-26T21:52:00.209Z,1018.00
2023-03-26T21:56:00.211Z,1000.00
2023-03-26T22:00:00.256Z,1006.00
2023-03-26T22:04:00.383Z,1007.00
2023-03-26T22:08:00.293Z,1006.00
2023-03-26T22:12:00.346Z,1008.00
2023-03-26T22:16:00.366Z,1011.00
2023-03-26T22:20:01.288Z,1012.00
2023-03-26T22:24:00.445Z,1000.00
2023-03-26T22:28:00.432Z,1011.00
2023-03-26T22:32:00.408Z,1013.00
2023-03-26T22:36:00.600Z,1021.00
2023-03-26T22:40:00.488Z,1006.00
2023-03-26T22:44:09.372Z,1019.00
2023-03-26T22:48:03.470Z,1022.00
2023-03-26T22:52:00.428Z,1011.00
2023-03-26T22:56:00.409Z,1020.00
2023-03-26T23:00:00.353Z,1024.00
2023-03-26T23:04:00.345Z,1014.00
2023-03-26T23:08:00.301Z,1016.00
2023-03-26T23:12:00.264Z,1017.00
2023-03-26T23:16:00.215Z,1017.00
2023-03-26T23:20:00.212Z,1018.00
2023-03-26T23:24:00.191Z,1020.00
2023-03-26T23:28:00.110Z,1027.00
2023-03-26T23:32:00.111Z,1031.00
2023-03-26T23:36:00.141Z,1026.00
2023-03-26T23:40:00.003Z,1030.00
2023-03-26T23:43:59.973Z,1020.00
2023-03-26T23:47:59.912Z,1024.00
2023-03-26T23:51:59.871Z,1015.00
2023-03-26T23:55:59.845Z,1022.00
2023-03-26T23:59:59.830Z,1025.00
